Weather Models
Both GFS & NAM
00z 06z 12z 18z
24hr Precip
00z 06z 12z 18z
36hr Simulated radar
00z 06z 12z 18z
SKEWT Soundings
00z 12z
Current Conditions (Updated 12:40am on 8/18/17)
Temperature
 79°
-0.92
80°  
79°  
0
10
20
30
40
50
60
70
80
90
100
Dew Point
69°
70°  
69°  
-20
-10
0
10
20
30
40
50
60
70
80
Heat Index
82°
83°  
82°  
30
40
50
60
70
80
90
100
110
120
130
Heat Index
Humidity
71%
71% 
71% 
0
10
20
30
40
50
60
70
80
90
100
Barometer
29.96
   Steady
29.96  
29.96  
28.00
28.30
28.60
28.90
29.20
29.50
29.80
30.10
30.40
30.70
31.00
Temperature
Dew Point
Humidity
Pressure
Wind
6mph
SSW
Daily Rain
.00
.05
.10
.15
.20
.25
.30
.35
.40
.45
.50
Rain Today
 0.00" 
Month Rain
0.00
0.50
1.00
1.50
2.00
2.50
3.00
3.50
4.00
4.50
5.00
Month Rain
 2.43" 
Year Rain
0.00
5.00
10.00
15.00
20.00
25.00
30.00
35.00
40.00
45.00
50.00
Year Rain
 27.81" 
Sun & Moon Data
Sunrise 6:17am
Sunset 7:54pm
Moonrise 2:42am
Moonset 5:32pm
Moon % 21%
Other Rain Data
Past Hour 0.00 Past 24 Hours 0.00
Past 3 Hours 0.00 Past 7 Days 0.06
Past 6 Hours 0.00
Cloud Height
2553


Current Front Map
Current Satellite map
7 Day Forecast
NWS Forecast for Philadelphia PA
National Weather Service Forecast for: Philadelphia PA
Issued by: National Weather Service Philadelphia, PA
Updated: 9:35 pm EDT Aug 17, 2017

Philadelphia
 
Overnight

Overnight: A chance of showers and thunderstorms.  Mostly cloudy, with a low around 75. South wind around 8 mph.  Chance of precipitation is 30%. New rainfall amounts of less than a tenth of an inch, except higher amounts possible in thunderstorms.
Chance
T-storms
Friday

Friday: Showers and thunderstorms likely before 11am, then showers likely and possibly a thunderstorm between 11am and 3pm, then showers and thunderstorms likely after 3pm. Some of the storms could produce small hail, gusty winds, heavy rain, and frequent lightning.  Cloudy, with a high near 87. South wind 7 to 9 mph.  Chance of precipitation is 70%. New rainfall amounts between a half and three quarters of an inch possible.
Heavy Rain
Friday
Night
Friday Night: Showers and thunderstorms likely, mainly before 11pm. Some of the storms could produce heavy rain.  Cloudy, then gradually becoming partly cloudy, with a low around 72. Southwest wind 5 to 8 mph.  Chance of precipitation is 70%. New rainfall amounts between a half and three quarters of an inch possible.
Heavy Rain
Saturday

Saturday: Mostly sunny, with a high near 89. Northwest wind 6 to 9 mph.
Mostly Sunny
Saturday
Night
Saturday Night: Partly cloudy, with a low around 71. West wind 3 to 6 mph.
Partly Cloudy
Sunday

Sunday: Sunny, with a high near 88.
Sunny
Sunday
Night
Sunday Night: Mostly clear, with a low around 68.
Mostly Clear
Monday

Monday: Sunny, with a high near 89.
Sunny
Monday
Night
Monday Night: Partly cloudy, with a low around 71.
Partly Cloudy
Lo 75 °F Hi 87 °F Lo 72 °F Hi 89 °F Lo 71 °F Hi 88 °F Lo 68 °F Hi 89 °F Lo 71 °F

Hazardous Weather Outlook
 

Overnight
 
A chance of showers and thunderstorms. Mostly cloudy, with a low around 75. South wind around 8 mph. Chance of precipitation is 30%. New rainfall amounts of less than a tenth of an inch, except higher amounts possible in thunderstorms.
Friday
 
Showers and thunderstorms likely before 11am, then showers likely and possibly a thunderstorm between 11am and 3pm, then showers and thunderstorms likely after 3pm. Some of the storms could produce small hail, gusty winds, heavy rain, and frequent lightning. Cloudy, with a high near 87. South wind 7 to 9 mph. Chance of precipitation is 70%. New rainfall amounts between a half and three quarters of an inch possible.
Friday Night
 
Showers and thunderstorms likely, mainly before 11pm. Some of the storms could produce heavy rain. Cloudy, then gradually becoming partly cloudy, with a low around 72. Southwest wind 5 to 8 mph. Chance of precipitation is 70%. New rainfall amounts between a half and three quarters of an inch possible.
Saturday
 
Mostly sunny, with a high near 89. Northwest wind 6 to 9 mph.
Saturday Night
 
Partly cloudy, with a low around 71. West wind 3 to 6 mph.
Sunday
 
Sunny, with a high near 88.
Sunday Night
 
Mostly clear, with a low around 68.
Monday
 
Sunny, with a high near 89.
Monday Night
 
Partly cloudy, with a low around 71.
Tuesday
 
Mostly sunny, with a high near 90.
Tuesday Night
 
Mostly cloudy, with a low around 73.
Wednesday
 
A chance of showers and thunderstorms. Partly sunny, with a high near 87. Chance of precipitation is 40%.
Wednesday Night
 
Mostly cloudy, with a low around 65.
Thursday
 
Mostly sunny, with a high near 82.

 

Forecast from NOAA-NWS for Philadelphia PA.

Area Weather Current Conditions
Nearby METAR Reports

KPHL - Philadelphia, Pennsylvania
Updated: Thu, 17-Aug-2017 11:54pm EDT
Partly Cloudy
Partly Cloudy
 Wind from SSE
Wind: SSE 7 mph , 11 km/h
Temperature: 75°F , 24°C
Dew Point: 72°F , 22°C
Humidity: 89%
Barometer: 29.95 inHg , 1014.2 hPa
Clouds: Partly Cloudy
Visibility: 10 miles , 16 km
Cloud details: Few Clouds 5000 ft
Partly Cloudy 25000 ft
2017/08/18 03:54 KPHL 180354Z 15006KT 10SM FEW050 SCT250 24/22 A2995 RMK AO2 SLP142 T02440217 $
KMPO - Mt. Pocono, Pennsylvania
Updated: Fri, 18-Aug-2017 12:35am EDT
Overcast
Overcast
 Wind from S
Wind: S 7 mph , 11 km/h
Temperature: 70°F , 21°C
Dew Point: 68°F , 20°C
Humidity: 94%
Barometer: 29.99 inHg , 1015.6 hPa
Clouds: Overcast
Visibility: 10 miles , 16 km
Cloud details: Overcast 800 ft
2017/08/18 04:35 KMPO 180435Z AUTO 17006KT 10SM OVC008 21/20 A2999 RMK AO2 CIG 007V013 T02060200
 
KACY - Atlantic City, New Jersey
Updated: Thu, 17-Aug-2017 11:54pm EDT
Clear
Clear
 Wind from S
Wind: S 8 mph , 13 km/h
Temperature: 77°F , 25°C
Dew Point: 72°F , 22°C
Humidity: 83%
Barometer: 29.97 inHg , 1014.9 hPa
Clouds: Clear
Visibility: 10 miles , 16 km
2017/08/18 03:54 KACY 180354Z 17007KT 10SM CLR 25/22 A2997 RMK AO2 SLP149 T02500222
KMIV - Millville, New Jersey
Updated: Thu, 17-Aug-2017 11:54pm EDT
Clear
Clear
 Wind from calm
Wind: Calm
Temperature: 75°F , 24°C
Dew Point: 73°F , 23°C
Humidity: 94%
Barometer: 29.97 inHg , 1014.9 hPa
Clouds: Clear
Visibility: 10 miles , 16 km
2017/08/18 03:54 KMIV 180354Z AUTO 00000KT 10SM CLR 24/23 A2997 RMK AO2 SLP145 T02440233
 
KWWD - Wildwood, New Jersey
Updated: Thu, 17-Aug-2017 11:55pm EDT
Few Clouds
Few Clouds
 Wind from S
Wind: S 12 mph , 19 km/h
Temperature: 75°F , 24°C
Dew Point: 73°F , 23°C
Humidity: 94%
Barometer: 29.98 inHg , 1015.2 hPa
Clouds: Few Clouds
Visibility: 10 miles , 16 km
Cloud details: Few Clouds 8500 ft
2017/08/18 03:55 KWWD 180355Z AUTO 17010KT 10SM FEW085 24/23 A2998 RMK AO2 SLP154 T02390228 402940206
KDOV - Dover Afb, Delaware
Updated: Thu, 17-Aug-2017 11:58pm EDT
Clear
Clear
 Wind from SSE
Wind: SSE 7 mph , 11 km/h
Temperature: 73°F , 23°C
Dew Point: 68°F , 20°C
Humidity: 83%
Barometer: 29.94 inHg , 1013.9 hPa
Clouds: Clear
Visibility: 10 miles , 16 km
2017/08/18 03:58 KDOV 180358Z 15006KT 10SM CLR 23/20 A2994 RMK AO2A SLP142 $
Severe Weather Map
Recent Forum Post
[Philadelphia] Request for Philly Snow Data by JC February 14, 2017, 08:42:21 PM
[Philadelphia] 2016 -2017 Winter snow forecast by JC December 01, 2016, 04:56:31 AM
[Philadelphia] Winter forecast 2016-2017 by xyonist November 30, 2016, 01:14:08 PM
[Philadelphia] 102.7 last Saturday by JC August 20, 2016, 03:26:22 AM
[Philadelphia] 2015 -2016 Winter snow forecast by JC April 19, 2016, 09:42:40 AM
[Philadelphia] Latest Models on Weekend Storm (Photos) by JC January 23, 2016, 12:01:03 PM
[Philadelphia] Possible large snow storm for end of week ? by JC January 21, 2016, 09:17:47 AM
[Philadelphia] El Nino! by vicente6 September 16, 2015, 01:57:08 AM